createdAt,value
2022-11-24T00:05:26.419Z,2
2022-11-24T00:11:27.007Z,8
2022-11-24T00:17:05.589Z,0
2022-11-24T00:22:49.634Z,0
2022-11-24T00:28:27.325Z,0
2022-11-24T00:34:09.239Z,5
2022-11-24T00:39:45.361Z,1
2022-11-24T00:45:21.384Z,2
2022-11-24T00:51:04.234Z,0
2022-11-24T00:56:38.951Z,0
2022-11-24T01:02:14.963Z,0
2022-11-24T01:07:51.968Z,3
2022-11-24T01:13:35.568Z,0
2022-11-24T01:19:34.030Z,2
2022-11-24T01:25:15.313Z,0
2022-11-24T01:31:19.433Z,2
2022-11-24T01:37:04.440Z,0
2022-11-24T01:42:39.448Z,0
2022-11-24T01:48:35.953Z,2
2022-11-24T01:54:17.272Z,2
2022-11-24T01:59:56.870Z,0
2022-11-24T02:05:46.783Z,2
2022-11-24T02:11:22.317Z,4
2022-11-24T02:17:05.502Z,8
2022-11-24T02:22:40.319Z,2
2022-11-24T02:28:15.985Z,4
2022-11-24T02:33:51.149Z,4
2022-11-24T02:39:25.840Z,2
2022-11-24T02:45:00.844Z,2
2022-11-24T02:50:35.725Z,0
2022-11-24T02:56:10.959Z,4
2022-11-24T03:01:54.676Z,2
2022-11-24T03:07:30.754Z,0
2022-11-24T03:13:05.908Z,0
2022-11-24T03:18:40.647Z,0
2022-11-24T03:24:15.424Z,0
2022-11-24T03:30:35.235Z,0
2022-11-24T03:36:10.948Z,0
2022-11-24T03:41:45.825Z,0
2022-11-24T03:47:42.344Z,2
2022-11-24T03:53:15.075Z,0
2022-11-24T03:58:51.182Z,4
2022-11-24T04:04:26.008Z,0
2022-11-24T04:10:01.942Z,2
2022-11-24T04:15:36.898Z,2
2022-11-24T04:21:12.634Z,2
2022-11-24T04:26:57.477Z,2
2022-11-24T04:32:45.761Z,0
2022-11-24T04:39:29.685Z,0
2022-11-24T04:45:07.382Z,5
2022-11-24T04:51:03.637Z,0
2022-11-24T04:56:39.254Z,6
2022-11-24T05:02:14.755Z,4
2022-11-24T05:07:53.157Z,0
2022-11-24T05:13:33.982Z,0
2022-11-24T05:19:08.885Z,0
2022-11-24T05:24:44.990Z,2
2022-11-24T05:30:28.088Z,0
2022-11-24T05:36:06.150Z,2
2022-11-24T05:41:42.037Z,1
2022-11-24T05:47:39.030Z,0
2022-11-24T05:53:11.891Z,0
2022-11-24T05:58:47.282Z,0
2022-11-24T06:04:22.367Z,0
2022-11-24T06:09:57.459Z,0
2022-11-24T06:15:32.284Z,0
2022-11-24T06:21:13.094Z,6
2022-11-24T06:26:48.355Z,2
2022-11-24T06:32:23.372Z,3
2022-11-24T06:37:58.561Z,0
2022-11-24T06:43:35.473Z,2
2022-11-24T06:49:41.280Z,4
2022-11-24T06:55:17.488Z,2
2022-11-24T07:00:54.180Z,2
2022-11-24T07:06:30.445Z,2
2022-11-24T07:12:05.822Z,2
2022-11-24T07:17:41.028Z,0
2022-11-24T07:23:16.334Z,6
2022-11-24T07:28:52.497Z,4
2022-11-24T07:34:28.055Z,0
2022-11-24T07:40:03.150Z,2
2022-11-24T07:45:38.370Z,2
2022-11-24T07:51:14.474Z,0
2022-11-24T07:56:51.002Z,0
2022-11-24T08:02:26.191Z,0
2022-11-24T08:08:01.712Z,0
2022-11-24T08:13:36.802Z,2
2022-11-24T08:19:17.119Z,0
2022-11-24T08:24:52.910Z,0
2022-11-24T08:30:28.391Z,0
2022-11-24T08:36:03.730Z,2
2022-11-24T08:41:42.649Z,6
2022-11-24T08:47:39.416Z,12
2022-11-24T08:53:19.350Z,12
2022-11-24T08:58:55.485Z,2
2022-11-24T09:04:34.877Z,18
2022-11-24T09:10:15.540Z,4
2022-11-24T09:15:54.114Z,8
2022-11-24T09:21:30.383Z,5
2022-11-24T09:27:05.382Z,0
2022-11-24T09:32:40.390Z,2
2022-11-24T09:38:16.262Z,0
2022-11-24T09:43:51.294Z,0
2022-11-24T09:49:52.928Z,3
2022-11-24T09:55:26.190Z,6
2022-11-24T10:01:04.914Z,12
2022-11-24T10:06:40.667Z,8
2022-11-24T10:12:17.646Z,10
2022-11-24T10:17:53.038Z,20
2022-11-24T10:23:29.820Z,22
2022-11-24T10:29:08.184Z,20
2022-11-24T10:34:51.523Z,16
2022-11-24T10:40:59.911Z,22
2022-11-24T10:46:57.995Z,27
2022-11-24T10:52:37.607Z,23
2022-11-24T10:58:12.691Z,12
2022-11-24T11:03:48.501Z,10
2022-11-24T11:09:29.379Z,16
2022-11-24T11:15:12.492Z,20
2022-11-24T11:21:08.847Z,14
2022-11-24T11:26:52.194Z,6
2022-11-24T11:34:07.136Z,10
2022-11-24T11:39:57.755Z,6
2022-11-24T11:45:33.297Z,12
2022-11-24T11:51:26.464Z,2
2022-11-24T11:57:02.123Z,6
2022-11-24T12:02:57.458Z,0
2022-11-24T12:09:53.617Z,6
2022-11-24T12:15:40.958Z,16
2022-11-24T12:21:36.933Z,10
2022-11-24T12:27:29.024Z,8
2022-11-24T12:33:09.251Z,2
2022-11-24T12:39:05.216Z,2
2022-11-24T12:44:40.585Z,6
2022-11-24T12:50:16.579Z,4
2022-11-24T12:55:55.913Z,0
2022-11-24T13:01:32.116Z,0
2022-11-24T13:07:08.599Z,4
2022-11-24T13:12:43.736Z,2
2022-11-24T13:18:20.207Z,0
2022-11-24T13:23:55.475Z,4
2022-11-24T13:29:30.533Z,0
2022-11-24T13:35:05.890Z,4
2022-11-24T13:41:29.378Z,4
2022-11-24T13:47:26.159Z,4
2022-11-24T13:52:59.507Z,2
2022-11-24T13:58:35.092Z,0
2022-11-24T14:04:38.236Z,2
2022-11-24T14:10:13.802Z,4
2022-11-24T14:15:49.492Z,2
2022-11-24T14:21:24.599Z,6
2022-11-24T14:27:00.035Z,2
2022-11-24T14:32:35.238Z,18
2022-11-24T14:38:10.388Z,14
2022-11-24T14:43:45.846Z,14
2022-11-24T14:49:44.278Z,20
2022-11-24T14:55:24.053Z,23
2022-11-24T15:00:59.870Z,14
2022-11-24T15:06:34.979Z,14
2022-11-24T15:12:10.592Z,20
2022-11-24T15:17:46.343Z,16
2022-11-24T15:23:22.439Z,25
2022-11-24T15:28:57.481Z,22
2022-11-24T15:34:34.217Z,12
2022-11-24T15:40:11.440Z,18
2022-11-24T15:45:46.603Z,8
2022-11-24T15:51:22.011Z,6
2022-11-24T15:57:01.781Z,11
2022-11-24T16:02:50.354Z,2
2022-11-24T16:08:26.234Z,4
2022-11-24T16:14:08.755Z,10
2022-11-24T16:20:01.883Z,4
2022-11-24T16:25:39.317Z,4
2022-11-24T16:31:16.543Z,6
2022-11-24T16:36:52.106Z,2
2022-11-24T16:42:27.400Z,4
2022-11-24T16:48:24.032Z,9
2022-11-24T16:53:58.957Z,6
2022-11-24T16:59:34.019Z,4
2022-11-24T17:05:09.514Z,14
2022-11-24T17:10:47.303Z,2
2022-11-24T17:16:24.029Z,2
2022-11-24T17:22:25.346Z,2
2022-11-24T17:28:14.489Z,0
2022-11-24T17:33:52.278Z,2
2022-11-24T17:39:28.843Z,2
2022-11-24T17:45:09.216Z,4
2022-11-24T17:50:46.773Z,4
2022-11-24T17:56:22.365Z,4
2022-11-24T18:01:59.338Z,12
2022-11-24T18:07:35.430Z,20
2022-11-24T18:14:02.848Z,26
2022-11-24T18:19:39.303Z,20
2022-11-24T18:25:14.196Z,30
2022-11-24T18:30:50.446Z,21
2022-11-24T18:36:31.771Z,18
2022-11-24T18:42:08.100Z,11
2022-11-24T18:48:05.102Z,12
2022-11-24T18:53:37.994Z,9
2022-11-24T18:59:13.652Z,10
2022-11-24T19:04:48.933Z,2
2022-11-24T19:10:25.909Z,4
2022-11-24T19:16:01.194Z,6
2022-11-24T19:21:36.425Z,6
2022-11-24T19:27:11.792Z,0
2022-11-24T19:32:47.177Z,4
2022-11-24T19:38:31.741Z,43
2022-11-24T19:44:13.139Z,17
2022-11-24T19:49:49.557Z,25
2022-11-24T19:55:25.001Z,16
2022-11-24T20:01:02.026Z,24
2022-11-24T20:06:38.929Z,48
2022-11-24T20:12:17.233Z,32
2022-11-24T20:17:53.931Z,14
2022-11-24T20:23:30.659Z,11
2022-11-24T20:29:06.613Z,4
2022-11-24T20:34:43.293Z,14
2022-11-24T20:40:18.897Z,8
2022-11-24T20:45:55.341Z,2
2022-11-24T20:51:36.776Z,6
2022-11-24T20:57:14.523Z,5
2022-11-24T21:02:50.781Z,2
2022-11-24T21:08:27.845Z,6
2022-11-24T21:14:03.896Z,0
2022-11-24T21:19:47.015Z,5
2022-11-24T21:25:24.262Z,0
2022-11-24T21:30:59.180Z,0
2022-11-24T21:36:41.104Z,2
2022-11-24T21:42:20.363Z,6
2022-11-24T21:48:18.788Z,6
2022-11-24T21:53:51.755Z,10
2022-11-24T21:59:26.761Z,12
2022-11-24T22:05:09.549Z,6
2022-11-24T22:10:45.588Z,8
2022-11-24T22:16:21.779Z,0
2022-11-24T22:21:58.049Z,6
2022-11-24T22:27:33.156Z,0
2022-11-24T22:33:08.719Z,6
2022-11-24T22:38:43.779Z,8
2022-11-24T22:44:20.112Z,8
2022-11-24T22:49:57.993Z,0
2022-11-24T22:55:34.236Z,6
2022-11-24T23:01:09.690Z,2
2022-11-24T23:06:46.010Z,5
2022-11-24T23:12:22.379Z,4
2022-11-24T23:17:59.052Z,8
2022-11-24T23:23:33.951Z,6
2022-11-24T23:29:10.414Z,3
2022-11-24T23:34:45.576Z,4
2022-11-24T23:40:20.961Z,4
2022-11-24T23:45:57.204Z,6
2022-11-24T23:51:33.055Z,0
2022-11-24T23:57:08.536Z,4
